Time;durP1;ratioP1;P1;durP2;ratioP2;P2;SDS_P1;SDS_P2;PMS_P1;PMS_P2;Temp;Humidity;BMP_temperature;BMP_pressure;BME280_temperature;BME280_humidity;BME280_pressure;Samples;Min_cycle;Max_cycle;Signal;HPM_P1;HPM_P2
2020/12/07 00:00:10;;;;;;;8.02;7.32;;;26.10;64.30;;;;;;5056593;28;20261;-63
2020/12/07 00:02:41;;;;;;;9.10;8.30;;;26.10;64.30;;;;;;5037285;28;20230;-62
2020/12/07 00:05:13;;;;;;;8.52;7.72;;;26.10;64.20;;;;;;5041631;28;20673;-62
2020/12/07 00:07:44;;;;;;;8.32;7.57;;;26.20;64.70;;;;;;5043433;28;20760;-62
2020/12/07 00:10:14;;;;;;;8.55;7.78;;;26.20;64.70;;;;;;5042051;28;20324;-62
2020/12/07 00:12:46;;;;;;;8.77;7.90;;;26.20;64.30;;;;;;5042111;28;20254;-62
2020/12/07 00:15:16;;;;;;;9.25;8.30;;;26.30;64.40;;;;;;5083293;28;20609;-62
2020/12/07 00:17:47;;;;;;;8.80;8.00;;;26.30;64.10;;;;;;5106623;27;20681;-62
2020/12/07 00:20:18;;;;;;;11.00;7.68;;;26.30;63.90;;;;;;5104797;28;20678;-62
2020/12/07 00:22:49;;;;;;;10.32;8.40;;;26.30;63.90;;;;;;5101136;28;20236;-62
2020/12/07 00:25:19;;;;;;;8.82;8.05;;;26.40;63.80;;;;;;5102699;27;20227;-62
2020/12/07 00:27:50;;;;;;;8.60;7.72;;;26.40;63.90;;;;;;5108345;27;20231;-62
2020/12/07 00:30:20;;;;;;;10.23;8.52;;;26.40;63.90;;;;;;5108353;27;20235;-62
2020/12/07 00:32:51;;;;;;;10.13;8.95;;;26.50;63.90;;;;;;5102276;27;20220;-62
2020/12/07 00:35:23;;;;;;;9.00;8.10;;;26.50;63.70;;;;;;5110417;27;20258;-62
2020/12/07 00:37:53;;;;;;;9.00;8.10;;;26.60;63.70;;;;;;5114367;27;20227;-62
2020/12/07 00:40:24;;;;;;;9.27;8.15;;;26.60;63.80;;;;;;5108897;28;20236;-62
2020/12/07 00:42:54;;;;;;;9.75;8.82;;;26.60;63.60;;;;;;5106884;27;20646;-63
2020/12/07 00:45:25;;;;;;;11.73;8.88;;;26.70;63.60;;;;;;5103631;27;20268;-62
2020/12/07 00:47:56;;;;;;;8.93;8.02;;;26.80;63.40;;;;;;5118883;27;20228;-63
2020/12/07 00:50:27;;;;;;;10.80;9.27;;;26.70;63.30;;;;;;5110265;27;20232;-62
2020/12/07 00:52:59;;;;;;;9.98;8.88;;;26.80;63.20;;;;;;5106087;27;20224;-62
2020/12/07 00:55:30;;;;;;;9.35;8.45;;;26.90;63.20;;;;;;5110920;27;20251;-63
2020/12/07 00:58:00;;;;;;;10.02;8.65;;;26.90;63.10;;;;;;5111688;27;20224;-63
2020/12/07 01:00:31;;;;;;;9.88;8.88;;;26.90;63.10;;;;;;5109494;27;20242;-64
2020/12/07 01:03:01;;;;;;;9.15;8.35;;;27.00;63.40;;;;;;5106433;27;20232;-63
2020/12/07 01:05:33;;;;;;;9.18;8.27;;;27.00;63.50;;;;;;5105001;27;20725;-63
2020/12/07 01:08:05;;;;;;;9.52;8.73;;;27.10;63.30;;;;;;5109391;27;20238;-63
2020/12/07 01:10:36;;;;;;;9.82;8.93;;;27.20;63.30;;;;;;5123175;27;20235;-63
2020/12/07 01:13:07;;;;;;;9.35;8.55;;;27.20;62.40;;;;;;5115627;27;20227;-63
2020/12/07 01:15:37;;;;;;;9.98;9.00;;;27.30;62.30;;;;;;5110737;28;20320;-63
2020/12/07 01:18:08;;;;;;;9.75;8.82;;;27.30;61.50;;;;;;5111991;27;20230;-64
2020/12/07 01:20:40;;;;;;;9.82;8.77;;;27.40;61.10;;;;;;5116490;27;20231;-65
2020/12/07 01:23:11;;;;;;;9.00;8.20;;;27.50;60.80;;;;;;5106186;27;20624;-63
2020/12/07 01:25:41;;;;;;;9.10;8.23;;;27.60;61.00;;;;;;5107168;28;20220;-62
2020/12/07 01:28:12;;;;;;;9.13;8.23;;;27.70;61.00;;;;;;5099706;28;20228;-63
2020/12/07 01:30:43;;;;;;;9.38;8.48;;;27.70;60.70;;;;;;5113479;27;20310;-63
2020/12/07 01:33:13;;;;;;;9.18;8.07;;;27.80;60.50;;;;;;5122559;27;20219;-64
2020/12/07 01:35:45;;;;;;;9.77;8.73;;;27.90;60.30;;;;;;5106218;28;20244;-64
2020/12/07 01:38:15;;;;;;;9.77;8.70;;;28.00;60.40;;;;;;5106062;28;20239;-64
2020/12/07 01:40:46;;;;;;;9.77;8.88;;;28.00;59.90;;;;;;5109131;27;20714;-64
2020/12/07 01:43:17;;;;;;;14.63;8.95;;;28.10;59.60;;;;;;5105460;28;20227;-64
2020/12/07 01:45:47;;;;;;;10.00;8.50;;;28.20;59.50;;;;;;5109966;27;20694;-64
2020/12/07 01:48:18;;;;;;;8.80;8.00;;;28.30;59.60;;;;;;5110650;27;20228;-64
2020/12/07 01:50:49;;;;;;;8.23;7.47;;;28.40;59.40;;;;;;5086934;28;20421;-64
2020/12/07 01:53:24;;;;;;;9.40;8.50;;;28.50;59.10;;;;;;5075208;28;20244;-63
2020/12/07 01:55:54;;;;;;;8.65;7.85;;;28.60;58.90;;;;;;5080294;28;20256;-64
2020/12/07 01:58:25;;;;;;;8.85;7.95;;;28.60;58.70;;;;;;5082592;28;20243;-63
2020/12/07 02:00:56;;;;;;;8.48;7.68;;;28.80;58.80;;;;;;5078250;28;20227;-64
2020/12/07 02:03:26;;;;;;;9.35;8.45;;;28.80;58.70;;;;;;5086429;28;20229;-64
2020/12/07 02:05:58;;;;;;;9.02;8.13;;;28.90;58.30;;;;;;5079238;28;20237;-63
2020/12/07 02:08:28;;;;;;;9.35;8.45;;;29.00;58.00;;;;;;5088377;28;20538;-63
2020/12/07 02:10:59;;;;;;;9.80;8.25;;;29.10;57.70;;;;;;5084897;28;20238;-62
2020/12/07 02:13:30;;;;;;;9.82;8.88;;;29.20;57.70;;;;;;5082176;28;20236;-63
2020/12/07 02:16:00;;;;;;;8.73;7.82;;;29.20;57.20;;;;;;5106580;27;20251;-60
2020/12/07 02:18:33;;;;;;;8.23;7.53;;;29.30;57.50;;;;;;5118314;27;20585;-64
2020/12/07 02:21:05;;;;;;;7.93;7.22;;;29.40;57.20;;;;;;5104959;27;20254;-64
2020/12/07 02:23:36;;;;;;;8.27;7.47;;;29.50;57.30;;;;;;5105039;28;20706;-62
2020/12/07 02:26:06;;;;;;;9.30;8.35;;;29.50;57.00;;;;;;5102266;27;20343;-67
2020/12/07 02:28:37;;;;;;;8.63;7.82;;;29.60;56.50;;;;;;5104999;27;20227;-64
2020/12/07 02:31:08;;;;;;;8.50;7.80;;;29.70;56.60;;;;;;5100901;28;20224;-64
2020/12/07 02:33:38;;;;;;;9.00;8.27;;;29.70;56.40;;;;;;5101475;28;20228;-63
2020/12/07 02:36:11;;;;;;;12.00;8.73;;;29.80;55.90;;;;;;5100259;27;20239;-64
2020/12/07 02:38:42;;;;;;;9.07;8.05;;;29.80;55.50;;;;;;5099419;28;20675;-65
2020/12/07 02:41:13;;;;;;;7.82;7.13;;;29.90;55.10;;;;;;5102990;27;20238;-64
2020/12/07 02:43:43;;;;;;;8.73;7.93;;;29.90;55.10;;;;;;5099458;27;20233;-64
2020/12/07 02:46:14;;;;;;;8.48;7.68;;;30.00;54.90;;;;;;5103689;28;20251;-63
2020/12/07 02:48:44;;;;;;;8.40;7.70;;;30.00;55.00;;;;;;5094697;28;20224;-63
2020/12/07 02:51:16;;;;;;;8.70;7.57;;;30.10;54.80;;;;;;5102696;27;20292;-64
2020/12/07 02:53:46;;;;;;;8.45;7.65;;;30.10;54.70;;;;;;5101249;28;20235;-63
2020/12/07 02:56:17;;;;;;;8.02;7.32;;;30.20;54.40;;;;;;5101767;27;20246;-64
2020/12/07 02:58:48;;;;;;;8.05;7.30;;;30.30;54.40;;;;;;5108838;27;20235;-63
2020/12/07 03:01:18;;;;;;;8.73;7.82;;;30.30;54.50;;;;;;5099241;27;20233;-64
2020/12/07 03:03:49;;;;;;;7.20;6.60;;;30.40;54.70;;;;;;5106323;27;20235;-64
2020/12/07 03:06:21;;;;;;;9.10;8.27;;;30.40;54.70;;;;;;5099446;28;20246;-64
2020/12/07 03:08:51;;;;;;;8.40;7.60;;;30.50;54.50;;;;;;5100808;28;20240;-64
2020/12/07 03:11:22;;;;;;;8.88;8.02;;;30.60;54.20;;;;;;5100284;28;20243;-63
2020/12/07 03:13:52;;;;;;;9.23;8.30;;;30.60;53.90;;;;;;5100414;28;20651;-63
2020/12/07 03:16:23;;;;;;;9.50;8.20;;;30.70;53.60;;;;;;5104221;28;20285;-64
2020/12/07 03:18:54;;;;;;;9.73;7.95;;;30.80;53.60;;;;;;5093166;28;20224;-64
2020/12/07 03:21:26;;;;;;;9.18;8.38;;;30.80;53.30;;;;;;5090666;28;20228;-64
2020/12/07 03:23:57;;;;;;;8.60;7.80;;;30.90;53.10;;;;;;5091400;28;20255;-63
2020/12/07 03:26:28;;;;;;;10.73;8.70;;;30.90;53.20;;;;;;5098566;28;20227;-63
2020/12/07 03:28:59;;;;;;;9.52;8.63;;;30.90;53.00;;;;;;5072846;28;20315;-64
2020/12/07 03:31:30;;;;;;;8.70;8.00;;;30.90;53.20;;;;;;5073651;28;20293;-63
2020/12/07 03:34:01;;;;;;;9.25;8.35;;;30.90;53.40;;;;;;5078652;28;20237;-63
2020/12/07 03:36:33;;;;;;;9.20;8.20;;;30.90;53.60;;;;;;5076094;28;20322;-63
2020/12/07 03:39:04;;;;;;;11.07;8.93;;;31.00;53.30;;;;;;5073003;28;20588;-63
2020/12/07 03:41:34;;;;;;;8.90;7.95;;;31.00;53.50;;;;;;5077468;28;20259;-61
2020/12/07 03:44:05;;;;;;;7.85;7.20;;;31.00;53.60;;;;;;5074770;28;20282;-63
2020/12/07 03:46:35;;;;;;;8.30;7.50;;;31.00;53.60;;;;;;5079371;28;20414;-63
2020/12/07 03:49:06;;;;;;;7.72;6.72;;;31.10;53.40;;;;;;5078607;28;20224;-63
2020/12/07 03:51:38;;;;;;;8.63;7.85;;;31.10;53.30;;;;;;5083455;28;20707;-63
2020/12/07 03:54:08;;;;;;;9.55;8.55;;;31.20;53.20;;;;;;5069377;28;20231;-63
2020/12/07 03:56:39;;;;;;;8.80;7.80;;;31.20;53.20;;;;;;5093776;28;20315;-63
2020/12/07 03:59:10;;;;;;;9.43;7.13;;;31.20;53.10;;;;;;5079192;27;20293;-63
2020/12/07 04:01:40;;;;;;;8.82;7.82;;;31.20;53.30;;;;;;5088935;28;20229;-63
2020/12/07 04:04:15;;;;;;;8.77;7.97;;;31.20;53.40;;;;;;5072010;28;20652;-63
2020/12/07 04:06:48;;;;;;;9.52;8.32;;;31.30;53.40;;;;;;5062148;28;20243;-63
2020/12/07 04:09:18;;;;;;;9.18;8.25;;;31.30;53.20;;;;;;5066762;28;20248;-61
2020/12/07 04:11:49;;;;;;;8.40;7.70;;;31.40;53.40;;;;;;5081265;28;20243;-62
2020/12/07 04:14:19;;;;;;;7.97;7.28;;;31.40;53.30;;;;;;5081480;28;20310;-62
2020/12/07 04:16:50;;;;;;;8.40;7.70;;;31.50;53.40;;;;;;5080462;28;20262;-61
2020/12/07 04:19:20;;;;;;;8.57;7.75;;;31.60;53.10;;;;;;5083908;28;20232;-63
2020/12/07 04:21:52;;;;;;;8.82;7.95;;;31.60;53.20;;;;;;5087639;28;20668;-63
2020/12/07 04:24:23;;;;;;;8.98;8.10;;;31.70;53.10;;;;;;5089530;28;20228;-63
2020/12/07 04:26:54;;;;;;;10.38;7.50;;;31.80;52.80;;;;;;5086471;28;20806;-63
2020/12/07 04:29:24;;;;;;;9.27;8.38;;;31.80;52.80;;;;;;5088048;28;20243;-62
2020/12/07 04:31:55;;;;;;;13.38;7.95;;;31.90;52.70;;;;;;5087449;28;20622;-63
2020/12/07 04:34:26;;;;;;;8.57;7.72;;;31.90;52.70;;;;;;5088313;28;20247;-62
2020/12/07 04:36:58;;;;;;;7.90;7.15;;;32.00;52.60;;;;;;5090852;28;20255;-63
2020/12/07 04:39:28;;;;;;;8.65;7.95;;;32.10;52.60;;;;;;5091466;28;20235;-63
2020/12/07 04:42:00;;;;;;;8.73;8.02;;;32.10;52.40;;;;;;5089571;28;20589;-63
2020/12/07 04:44:30;;;;;;;10.73;9.68;;;32.10;52.30;;;;;;5090490;28;20680;-62
2020/12/07 04:47:01;;;;;;;9.63;8.25;;;32.20;52.20;;;;;;5086223;28;20237;-62
2020/12/07 04:49:32;;;;;;;9.32;8.52;;;32.20;52.50;;;;;;5078787;28;20236;-62
2020/12/07 04:52:04;;;;;;;10.07;9.07;;;32.30;52.70;;;;;;5088280;28;20236;-63
2020/12/07 04:54:34;;;;;;;11.98;10.77;;;32.20;52.60;;;;;;5091274;28;20228;-62
2020/12/07 04:57:05;;;;;;;12.27;10.98;;;32.30;52.90;;;;;;5090024;28;20228;-62
2020/12/07 04:59:36;;;;;;;11.50;10.32;;;32.40;53.00;;;;;;5089384;28;20228;-62
2020/12/07 05:02:06;;;;;;;11.20;9.23;;;32.40;52.80;;;;;;5090383;28;20236;-63
2020/12/07 05:04:37;;;;;;;9.80;8.85;;;32.50;52.60;;;;;;5088266;28;20317;-62
2020/12/07 05:07:09;;;;;;;10.10;9.10;;;32.50;52.40;;;;;;5089909;28;20312;-62
2020/12/07 05:09:40;;;;;;;10.90;9.02;;;32.60;52.60;;;;;;5088436;28;20307;-61
2020/12/07 05:12:16;;;;;;;9.93;9.02;;;32.70;52.40;;;;;;5090437;28;20240;-60
2020/12/07 05:14:47;;;;;;;10.02;9.02;;;32.80;52.20;;;;;;5074868;28;20236;-62
2020/12/07 05:17:18;;;;;;;10.55;9.55;;;32.80;51.70;;;;;;5070386;28;20237;-62
2020/12/07 05:19:48;;;;;;;9.55;8.73;;;33.00;51.40;;;;;;5071471;28;20229;-62
2020/12/07 05:22:20;;;;;;;10.00;9.10;;;33.00;51.60;;;;;;5086193;28;20236;-61
2020/12/07 05:24:51;;;;;;;9.43;8.52;;;33.00;51.60;;;;;;5088287;28;20236;-62
2020/12/07 05:27:22;;;;;;;9.70;8.85;;;33.20;51.70;;;;;;5072656;28;20648;-63
2020/12/07 05:30:02;;;;;;;10.60;9.63;;;33.20;51.60;;;;;;4997897;28;20597;-62
2020/12/07 05:32:34;;;;;;;9.40;8.40;;;33.30;51.00;;;;;;4981981;28;20295;-62
2020/12/07 05:35:05;;;;;;;9.10;8.30;;;33.40;50.80;;;;;;4988134;28;20235;-61
2020/12/07 05:37:39;;;;;;;8.25;7.55;;;33.50;50.30;;;;;;4989308;28;20239;-62
2020/12/07 05:40:10;;;;;;;7.43;6.72;;;33.60;50.40;;;;;;4987631;28;20237;-61
2020/12/07 05:42:41;;;;;;;7.47;6.88;;;33.60;50.60;;;;;;4999113;28;20231;-61
2020/12/07 05:45:12;;;;;;;8.65;7.55;;;33.60;50.80;;;;;;4990993;28;20227;-62
2020/12/07 05:47:43;;;;;;;7.97;7.28;;;33.70;50.00;;;;;;4988487;28;20278;-61
2020/12/07 05:50:13;;;;;;;8.82;8.02;;;33.70;50.30;;;;;;4987176;28;20615;-61
2020/12/07 05:52:54;;;;;;;7.85;6.93;;;33.80;49.80;;;;;;4976304;28;20236;-63
2020/12/07 05:55:25;;;;;;;6.78;6.28;;;33.80;50.00;;;;;;5039088;28;20320;-62
2020/12/07 05:58:04;;;;;;;7.75;6.97;;;33.90;50.40;;;;;;5037725;28;20309;-62
2020/12/07 06:00:35;;;;;;;7.68;6.38;;;33.90;49.70;;;;;;5046343;28;20316;-63
2020/12/07 06:03:06;;;;;;;6.82;6.22;;;34.00;49.80;;;;;;5062138;28;20639;-62
2020/12/07 06:05:37;;;;;;;7.32;6.60;;;34.10;49.60;;;;;;5088198;28;20307;-63
2020/12/07 06:08:12;;;;;;;6.10;5.57;;;34.10;49.40;;;;;;5039132;28;20242;-63
2020/12/07 06:10:44;;;;;;;6.40;5.78;;;34.10;49.70;;;;;;5026815;28;20244;-63
2020/12/07 06:13:16;;;;;;;6.88;6.28;;;34.10;49.60;;;;;;5033155;28;20238;-63
2020/12/07 06:15:46;;;;;;;7.15;6.45;;;34.20;49.50;;;;;;5045668;28;20287;-63
2020/12/07 06:18:29;;;;;;;8.23;7.03;;;34.20;49.50;;;;;;5075402;28;20700;-62
2020/12/07 06:21:05;;;;;;;8.35;6.45;;;34.30;49.30;;;;;;5079703;28;20706;-63
2020/12/07 06:23:39;;;;;;;7.30;6.60;;;34.30;49.10;;;;;;5078594;28;20710;-62
2020/12/07 06:26:12;;;;;;;7.47;6.88;;;34.40;48.60;;;;;;5082078;28;20337;-62
2020/12/07 06:28:42;;;;;;;7.60;6.15;;;34.40;48.70;;;;;;5083805;28;20228;-61
2020/12/07 06:31:14;;;;;;;6.72;6.13;;;34.40;48.40;;;;;;5083023;28;20573;-62
2020/12/07 06:33:46;;;;;;;6.07;5.57;;;34.40;48.00;;;;;;5078585;28;20236;-62
2020/12/07 06:36:39;;;;;;;7.68;6.97;;;34.40;48.20;;;;;;5086216;28;20244;-60
2020/12/07 06:39:11;;;;;;;7.60;6.90;;;34.40;48.10;;;;;;5076854;27;20228;-58
2020/12/07 06:41:42;;;;;;;8.00;7.22;;;34.40;47.80;;;;;;5108785;27;20267;-61
2020/12/07 06:44:15;;;;;;;6.45;5.95;;;34.40;48.90;;;;;;5098067;28;20311;-61
2020/12/07 06:46:51;;;;;;;6.82;6.22;;;34.40;48.30;;;;;;5112715;27;20236;-61
2020/12/07 06:49:31;;;;;;;9.23;8.02;;;34.40;48.90;;;;;;5112111;27;20300;-61
2020/12/07 06:52:07;;;;;;;31.65;18.95;;;34.40;49.50;;;;;;5043379;28;20253;-61
2020/12/07 06:55:05;;;;;;;14.50;11.43;;;34.40;50.10;;;;;;5032589;28;20674;-62
2020/12/07 06:57:41;;;;;;;14.40;11.63;;;34.30;50.40;;;;;;5050148;28;20315;-61
2020/12/07 07:00:13;;;;;;;15.38;13.40;;;34.30;50.90;;;;;;5037566;28;20230;-68
2020/12/07 07:02:44;;;;;;;11.38;10.23;;;34.30;50.80;;;;;;5044067;28;20291;-62
2020/12/07 07:05:15;;;;;;;14.80;13.40;;;34.30;50.70;;;;;;5044741;28;20233;-64
2020/12/07 07:07:46;;;;;;;11.85;10.65;;;34.30;51.10;;;;;;5040270;28;20307;-62
2020/12/07 07:10:18;;;;;;;11.20;10.15;;;34.30;51.00;;;;;;5057615;28;20252;-63
2020/12/07 07:12:48;;;;;;;10.77;9.77;;;34.20;51.20;;;;;;5045149;28;20241;-63
2020/12/07 07:15:22;;;;;;;11.50;10.48;;;34.20;51.10;;;;;;5038790;28;20782;-63
2020/12/07 07:17:53;;;;;;;14.25;12.15;;;34.20;51.00;;;;;;5054753;28;20230;-61
2020/12/07 07:20:23;;;;;;;13.15;11.80;;;34.10;51.30;;;;;;5042033;28;20230;-62
2020/12/07 07:22:54;;;;;;;12.35;11.30;;;34.10;51.40;;;;;;5081698;28;20599;-63
2020/12/07 07:25:39;;;;;;;20.35;14.48;;;34.10;51.90;;;;;;5105516;28;20973;-62
2020/12/07 07:28:09;;;;;;;28.40;16.85;;;34.00;51.50;;;;;;5094635;28;20230;-62
2020/12/07 07:30:40;;;;;;;13.52;12.13;;;33.90;51.80;;;;;;5043302;28;20237;-62
2020/12/07 07:33:10;;;;;;;8.90;8.00;;;33.90;52.40;;;;;;5039146;28;20234;-63
2020/12/07 07:35:41;;;;;;;7.45;6.75;;;33.90;51.10;;;;;;5041416;28;20252;-63
2020/12/07 07:38:12;;;;;;;12.82;11.43;;;33.80;50.40;;;;;;5024240;28;20309;-63
2020/12/07 07:40:43;;;;;;;14.13;12.73;;;33.90;51.90;;;;;;5032872;28;20313;-63
2020/12/07 07:43:14;;;;;;;17.45;12.40;;;33.90;52.20;;;;;;5041330;28;20694;-63
2020/12/07 07:45:45;;;;;;;14.27;12.18;;;33.90;52.30;;;;;;5044411;28;20332;-63
2020/12/07 07:48:19;;;;;;;12.88;11.65;;;34.00;52.20;;;;;;5018888;28;20647;-63
2020/12/07 07:51:23;;;;;;;12.50;11.30;;;34.00;51.70;;;;;;4971023;28;20250;-63
2020/12/07 08:17:19;;;;;;;14.52;13.13;;;34.00;52.40;;;;;;4978025;28;20239;-62
2020/12/07 08:19:52;;;;;;;14.63;12.98;;;33.90;52.50;;;;;;4979789;28;20241;-61
2020/12/07 08:22:23;;;;;;;15.18;13.68;;;33.80;52.40;;;;;;4996498;28;20238;-63
2020/12/07 08:24:55;;;;;;;15.45;13.85;;;33.70;52.70;;;;;;5022931;28;20234;-64
2020/12/07 08:27:32;;;;;;;17.30;13.25;;;33.70;53.30;;;;;;5051822;28;20237;-63
2020/12/07 08:30:03;;;;;;;14.68;13.27;;;33.60;53.30;;;;;;5087854;27;20274;-63
2020/12/07 08:32:34;;;;;;;14.25;12.95;;;33.50;53.70;;;;;;5105660;28;20239;-64
2020/12/07 08:35:12;;;;;;;13.40;12.10;;;33.50;53.80;;;;;;5111975;28;20247;-64
2020/12/07 08:37:46;;;;;;;13.05;11.60;;;33.50;53.80;;;;;;5107752;28;20235;-63
2020/12/07 08:40:18;;;;;;;14.38;13.07;;;33.50;53.70;;;;;;5106756;27;20250;-64
2020/12/07 08:42:48;;;;;;;13.52;12.32;;;33.50;53.80;;;;;;5097701;27;20254;-63
2020/12/07 08:45:21;;;;;;;13.70;12.45;;;33.50;54.00;;;;;;5104669;28;20263;-65
2020/12/07 08:47:51;;;;;;;14.50;13.00;;;33.50;54.10;;;;;;5108122;28;20658;-65
2020/12/07 08:50:22;;;;;;;13.00;11.88;;;33.50;54.00;;;;;;5111309;28;20667;-62
2020/12/07 08:52:53;;;;;;;14.13;12.63;;;33.50;54.10;;;;;;5110518;28;20277;-64
2020/12/07 08:55:24;;;;;;;12.60;11.50;;;33.50;54.20;;;;;;5111311;28;20228;-63
2020/12/07 08:57:54;;;;;;;14.90;13.40;;;33.50;54.20;;;;;;5105940;28;20244;-64
2020/12/07 09:00:26;;;;;;;13.52;12.13;;;33.50;54.20;;;;;;5113010;27;20300;-63
2020/12/07 09:02:56;;;;;;;14.00;12.68;;;33.50;54.50;;;;;;5099062;28;20239;-60
2020/12/07 09:05:27;;;;;;;14.50;13.20;;;33.50;54.60;;;;;;5109997;27;20231;-62
2020/12/07 09:07:58;;;;;;;15.25;13.85;;;33.40;54.50;;;;;;5131927;27;20793;-63
2020/12/07 09:10:28;;;;;;;16.42;14.73;;;33.40;54.70;;;;;;5119340;27;20234;-63
2020/12/07 09:13:00;;;;;;;15.95;14.38;;;33.40;54.90;;;;;;5114895;27;20256;-64
2020/12/07 09:15:32;;;;;;;14.68;13.27;;;33.40;55.40;;;;;;5094034;28;20244;-62
2020/12/07 09:18:03;;;;;;;18.00;16.17;;;33.30;55.20;;;;;;5076716;28;20244;-64
2020/12/07 09:20:35;;;;;;;17.88;14.63;;;33.30;55.20;;;;;;5087377;28;20683;-64
2020/12/07 09:23:05;;;;;;;14.05;12.80;;;33.30;55.10;;;;;;5090623;28;20236;-63
2020/12/07 09:25:36;;;;;;;17.65;15.85;;;33.30;55.00;;;;;;5098605;28;20236;-63
2020/12/07 09:28:07;;;;;;;17.20;15.40;;;33.30;54.90;;;;;;5111000;28;20599;-62
2020/12/07 09:30:43;;;;;;;22.92;18.40;;;33.20;54.90;;;;;;5084822;28;20225;-62
2020/12/07 09:33:13;;;;;;;14.15;12.75;;;33.20;55.10;;;;;;5077784;28;20282;-62
2020/12/07 09:35:43;;;;;;;15.25;13.60;;;33.20;55.10;;;;;;5088367;28;20242;-63
2020/12/07 09:38:14;;;;;;;17.20;14.50;;;33.10;55.30;;;;;;5085934;28;20233;-60
2020/12/07 09:40:45;;;;;;;17.38;15.55;;;33.10;55.50;;;;;;5082380;28;20684;-63
2020/12/07 09:43:15;;;;;;;16.70;13.70;;;33.10;55.60;;;;;;5088376;28;20724;-62
2020/12/07 09:45:47;;;;;;;13.60;12.23;;;33.10;55.60;;;;;;5109990;28;20246;-63
2020/12/07 09:48:18;;;;;;;14.02;12.60;;;33.10;55.60;;;;;;5081026;28;20314;-63
2020/12/07 09:50:49;;;;;;;12.32;11.23;;;33.20;55.50;;;;;;5101476;28;20675;-60
2020/12/07 09:53:19;;;;;;;11.65;10.55;;;33.20;55.40;;;;;;5078603;28;20229;-62
2020/12/07 09:55:50;;;;;;;11.75;10.75;;;33.20;55.00;;;;;;5086433;28;20788;-60
2020/12/07 09:58:21;;;;;;;12.05;10.85;;;33.20;54.80;;;;;;5080400;28;20692;-63
2020/12/07 10:00:53;;;;;;;11.50;10.38;;;33.30;54.80;;;;;;5089285;28;20224;-62
2020/12/07 10:03:24;;;;;;;11.93;10.73;;;33.30;54.70;;;;;;5081400;28;20608;-62
2020/12/07 10:05:54;;;;;;;13.45;12.07;;;33.40;54.80;;;;;;5090353;28;20265;-62
2020/12/07 10:08:25;;;;;;;13.32;12.00;;;33.40;54.80;;;;;;5097449;28;20629;-61
2020/12/07 10:10:55;;;;;;;12.55;11.30;;;33.50;54.90;;;;;;5085237;28;20245;-63
2020/12/07 10:13:31;;;;;;;12.73;11.63;;;33.70;54.90;;;;;;5079541;28;20312;-63
2020/12/07 10:16:06;;;;;;;11.27;10.07;;;33.90;54.60;;;;;;5106020;28;20234;-62
2020/12/07 10:18:37;;;;;;;11.40;10.30;;;34.10;54.40;;;;;;5115266;27;20239;-62
2020/12/07 10:21:08;;;;;;;11.02;9.88;;;34.30;54.30;;;;;;5130892;27;20657;-62
2020/12/07 10:23:39;;;;;;;13.05;10.73;;;34.50;54.10;;;;;;5109934;27;20247;-62
2020/12/07 10:26:10;;;;;;;11.25;9.85;;;34.70;52.60;;;;;;5111536;27;20224;-63
2020/12/07 10:28:41;;;;;;;12.10;10.73;;;34.80;52.10;;;;;;5096779;27;20721;-62
2020/12/07 10:31:13;;;;;;;11.90;10.70;;;34.90;51.10;;;;;;5100617;27;20232;-63
2020/12/07 10:33:44;;;;;;;14.43;11.70;;;35.00;50.50;;;;;;5109146;27;20232;-62
2020/12/07 10:36:16;;;;;;;12.18;10.98;;;34.90;50.20;;;;;;5110036;27;20596;-62
2020/12/07 10:38:47;;;;;;;12.90;11.80;;;34.80;49.90;;;;;;5121567;27;20351;-62
2020/12/07 10:41:17;;;;;;;13.68;11.82;;;34.60;50.00;;;;;;5114441;27;20232;-63
2020/12/07 10:43:48;;;;;;;12.68;11.07;;;34.40;50.10;;;;;;5107356;27;20228;-62
2020/12/07 10:46:20;;;;;;;14.00;11.77;;;34.20;50.30;;;;;;5114196;27;20625;-62
2020/12/07 10:48:50;;;;;;;11.65;10.45;;;34.10;50.50;;;;;;5085658;28;20233;-63
2020/12/07 10:51:24;;;;;;;12.30;11.20;;;33.80;50.60;;;;;;5088589;28;20232;-63
2020/12/07 10:53:54;;;;;;;13.68;10.60;;;33.60;50.80;;;;;;5110158;27;20308;-63
2020/12/07 10:56:25;;;;;;;13.13;11.38;;;33.50;51.10;;;;;;5116473;27;20232;-63
2020/12/07 10:58:56;;;;;;;11.75;10.55;;;33.30;51.40;;;;;;5125918;27;20254;-62
2020/12/07 11:01:28;;;;;;;12.65;10.63;;;33.10;51.60;;;;;;5115198;27;20272;-63
2020/12/07 11:03:58;;;;;;;11.95;10.63;;;33.00;51.90;;;;;;5111617;27;20717;-63
2020/12/07 11:06:31;;;;;;;12.00;10.73;;;32.90;52.20;;;;;;5108615;28;20287;-63
2020/12/07 11:09:06;;;;;;;12.88;11.18;;;32.70;52.40;;;;;;5124277;27;20231;-62
2020/12/07 11:11:37;;;;;;;12.43;11.13;;;32.60;53.30;;;;;;5113185;27;20239;-63
2020/12/07 11:14:08;;;;;;;11.90;10.70;;;32.50;52.80;;;;;;5112210;27;20227;-63
2020/12/07 11:16:39;;;;;;;11.80;10.63;;;32.40;52.90;;;;;;5115479;27;20640;-64
2020/12/07 11:19:10;;;;;;;13.05;10.82;;;32.30;53.10;;;;;;5117071;27;20234;-63
2020/12/07 11:21:41;;;;;;;13.75;11.32;;;32.20;53.30;;;;;;5129276;27;20226;-63
2020/12/07 11:24:11;;;;;;;13.45;11.50;;;32.20;53.40;;;;;;5126566;27;20227;-63
2020/12/07 11:26:43;;;;;;;12.05;10.85;;;32.10;53.60;;;;;;5129302;27;20234;-63
2020/12/07 11:29:13;;;;;;;12.70;10.18;;;32.00;53.70;;;;;;5119612;28;20682;-63
2020/12/07 11:31:47;;;;;;;15.15;11.95;;;32.00;53.90;;;;;;5114231;28;20231;-63
2020/12/07 11:34:20;;;;;;;13.18;11.75;;;31.90;54.00;;;;;;5116263;28;20238;-61
2020/12/07 11:36:51;;;;;;;13.70;12.02;;;31.80;54.10;;;;;;5101945;28;20241;-63
2020/12/07 11:44:53;;;;;;;12.75;11.45;;;31.70;54.30;;;;;;5111448;28;20281;-63
2020/12/07 11:47:25;;;;;;;14.27;12.18;;;31.70;54.50;;;;;;5120220;28;20276;-63
2020/12/07 11:49:55;;;;;;;11.95;10.73;;;31.70;54.70;;;;;;5098432;28;20314;-63
2020/12/07 11:52:26;;;;;;;12.90;10.90;;;31.60;54.70;;;;;;5109183;28;20714;-63
2020/12/07 11:54:56;;;;;;;11.65;10.48;;;31.60;54.90;;;;;;5103688;28;20255;-63
2020/12/07 11:57:27;;;;;;;12.35;11.15;;;31.60;55.10;;;;;;5129098;28;20318;-59
2020/12/07 11:59:57;;;;;;;13.45;10.88;;;31.50;55.20;;;;;;5114902;28;20267;-63
2020/12/07 12:02:29;;;;;;;14.40;12.25;;;31.50;55.20;;;;;;5127229;28;20223;-64
2020/12/07 12:05:04;;;;;;;13.63;11.45;;;31.50;55.60;;;;;;5114591;28;20705;-62
2020/12/07 12:07:34;;;;;;;11.90;10.77;;;31.40;55.60;;;;;;5128396;28;20268;-60
2020/12/07 12:10:06;;;;;;;12.20;11.00;;;31.40;55.60;;;;;;5112678;28;20690;-61
2020/12/07 12:12:37;;;;;;;12.32;10.70;;;31.40;55.80;;;;;;5111153;28;20224;-61
2020/12/07 12:15:08;;;;;;;12.27;11.10;;;31.40;55.90;;;;;;5107400;28;20230;-62
2020/12/07 12:17:40;;;;;;;12.38;11.18;;;31.30;56.00;;;;;;5114385;28;20620;-59
2020/12/07 12:20:11;;;;;;;14.43;12.65;;;31.30;56.20;;;;;;5109011;28;20315;-62
2020/12/07 12:22:44;;;;;;;18.63;16.10;;;31.30;56.20;;;;;;5108342;28;20231;-62
2020/12/07 12:25:15;;;;;;;19.02;17.02;;;31.30;56.40;;;;;;5120067;28;20604;-62
2020/12/07 12:27:47;;;;;;;24.30;21.25;;;31.20;56.40;;;;;;5110411;27;20600;-63
2020/12/07 12:30:19;;;;;;;34.92;25.80;;;31.20;56.60;;;;;;5121195;27;20228;-62
2020/12/07 12:32:51;;;;;;;40.10;31.90;;;31.10;56.60;;;;;;5098678;27;20676;-62
2020/12/07 12:35:22;;;;;;;36.63;27.38;;;31.20;57.00;;;;;;5095213;28;20236;-63
2020/12/07 12:37:53;;;;;;;32.72;27.77;;;31.10;56.90;;;;;;5102324;28;20704;-62
2020/12/07 12:40:23;;;;;;;44.17;30.90;;;31.10;57.00;;;;;;5099597;28;20266;-62
2020/12/07 12:42:54;;;;;;;44.47;33.40;;;31.10;57.20;;;;;;5112745;27;20255;-63
2020/12/07 12:45:25;;;;;;;43.55;32.63;;;31.10;57.30;;;;;;5111034;28;20238;-62
2020/12/07 12:47:56;;;;;;;41.53;30.63;;;31.00;57.30;;;;;;5111042;28;20250;-63
2020/12/07 12:50:27;;;;;;;46.00;34.13;;;31.00;57.50;;;;;;5108601;27;20235;-63
2020/12/07 12:52:57;;;;;;;40.35;29.23;;;31.00;57.60;;;;;;5115830;27;20235;-63
2020/12/07 12:55:28;;;;;;;35.38;26.10;;;31.00;57.60;;;;;;5115658;27;20229;-64
2020/12/07 12:57:59;;;;;;;28.58;22.00;;;31.00;57.70;;;;;;5111662;28;20229;-63
2020/12/07 13:00:31;;;;;;;35.75;24.63;;;31.00;57.80;;;;;;5105201;28;20276;-63
2020/12/07 13:03:03;;;;;;;36.22;26.05;;;30.90;57.80;;;;;;5127587;27;20246;-63
2020/12/07 13:05:34;;;;;;;35.90;24.83;;;30.90;57.90;;;;;;5132078;27;20284;-62
2020/12/07 13:08:04;;;;;;;40.08;25.77;;;30.90;57.90;;;;;;5111251;28;20261;-63
2020/12/07 13:10:35;;;;;;;28.23;20.75;;;30.90;58.10;;;;;;5108217;28;20231;-62
2020/12/07 13:13:05;;;;;;;24.55;16.45;;;30.90;58.30;;;;;;5111521;27;20305;-63
2020/12/07 13:15:40;;;;;;;17.40;15.27;;;30.90;58.50;;;;;;5111103;27;20227;-62
2020/12/07 13:18:12;;;;;;;20.38;16.00;;;30.90;58.50;;;;;;5102007;27;20232;-63
2020/12/07 13:20:47;;;;;;;35.63;22.55;;;30.80;58.60;;;;;;5090827;28;20232;-63
2020/12/07 13:23:22;;;;;;;35.72;24.52;;;30.80;58.70;;;;;;5104083;27;20251;-63
2020/12/07 13:26:00;;;;;;;38.10;25.08;;;30.80;58.70;;;;;;5103472;28;20231;-64